(°C)
-2°
-3°
-3°
-2°
-2°
-1°
(°C)
-7°
-7°
-7°
-6°
-6°
-5°
-5°
O
O
WSW
WSW
SW
SSW
SSW
(km/h)
8-13
7-12
7-10
7-10
8-10
9-12
10-15
(mm)
0
0
0
0
0
0
0
(%)
0
0
0
0
0
0
0

Elevazione del sole

/ -38.2°
sun-icon
UV 1
07:24
17:22
Gibbosa calante (244°)
20:13
13:34

METAR per 53.5°N 50.15°E (UWWW)

Ora Condizioni Temperatura/
Punto di rugiada
Vento Visibilità Tempo Nuvole Pressione Cambiamento Grezzo
VFR -2°C / -4°C 290º 6kt >10km - Clouds and Visibility OK 1027 No Significant change UWWW 252230Z 29003MPS CAVOK M02/M04 Q1027 R33/CLRD60 NOSIG RMK QFE759/1012
VFR -3°C / -5°C 270º variable 240º to 310º 6kt >10km - Clouds and Visibility OK 1026 No Significant change UWWW 252200Z 27003MPS 240V310 CAVOK M03/M05 Q1026 R33/CLRD60 NOSIG RMK QFE759/1012
VFR -4°C / -6°C 240º 4kt >10km - Clouds and Visibility OK 1026 No Significant change UWWW 252130Z 24002MPS CAVOK M04/M06 Q1026 R33/CLRD60 NOSIG RMK QFE759/1012
VFR -2°C / -5°C 290º variable 250º to 320º 6kt >10km - Clouds and Visibility OK 1026 No Significant change UWWW 252100Z 29003MPS 250V320 CAVOK M02/M05 Q1026 R33/CLRD60 NOSIG RMK QFE758/1011
VFR -1°C / -5°C 300º 8kt >10km - Clouds and Visibility OK 1025 No Significant change UWWW 252030Z 30004MPS CAVOK M01/M05 Q1025 R33/CLRD60 NOSIG RMK QFE758/1011
VFR -1°C / -4°C 300º 8kt >10km - Clouds and Visibility OK 1025 No Significant change UWWW 252000Z 30004MPS CAVOK M01/M04 Q1025 R33/CLRD60 NOSIG RMK QFE758/1011
VFR -1°C / -5°C 320º 10kt >10km - Clouds and Visibility OK 1025 No Significant change UWWW 251930Z 32005MPS CAVOK M01/M05 Q1025 R33/CLRD60 NOSIG RMK QFE758/1011
VFR 0°C / -4°C 330º 12kt >10km - Few Clouds 3300ft 1025 No Significant change UWWW 251900Z 33006MPS 9999 FEW033 00/M04 Q1025 R33/CLRD60 NOSIG RMK QFE758/1010
VFR 0°C / -4°C 330º 12kt >10km - Scattered Clouds 2600ft 1024 No Significant change UWWW 251830Z 33006MPS 9999 SCT026 00/M04 Q1024 R33/CLRD60 NOSIG RMK QFE758/1010
VFR 1°C / -5°C 330º 8kt >10km - Scattered Clouds 2600ft 1024 No Significant change UWWW 251800Z 33004MPS 9999 SCT026 01/M05 Q1024 R33/CLRD60 NOSIG RMK QFE757/1010
MVFR 1°C / -5°C 350º 10kt >10km - Broken Clouds 3000ft 1024 No Significant change UWWW 251730Z 35005MPS 9999 BKN030 01/M05 Q1024 R33/CLRD60 NOSIG RMK QFE757/1010
MVFR 1°C / -5°C 330º 10kt >10km - Broken Clouds 2700ft 1024 No Significant change UWWW 251700Z 33005MPS 9999 BKN027 01/M05 Q1024 R33/CLRD60 NOSIG RMK QFE757/1010
MVFR 2°C / -5°C 350º variable 320º to 020º 14kt >10km - Broken Clouds 2800ft 1023 No Significant change. Runway 33: Damp, 51-100% contamination with <1mm, friction coefficient 0.55. UWWW 251630Z 35007MPS 320V020 9999 BKN028 02/M05 Q1023 R33/190055 NOSIG RMK QFE757/1009
MVFR 2°C / -4°C 330º variable 300º to 360º 10kt Gust 19kt >10km - Broken Clouds 2300ft 1023 No Significant change. Runway 33: Damp, 51-100% contamination with <1mm, friction coefficient 0.55. UWWW 251600Z 33005G10MPS 300V360 9999 BKN023 02/M04 Q1023 R33/190055 NOSIG RMK QFE756/1009
MVFR 2°C / -4°C 350º 14kt >10km - Broken Clouds 2100ft 1022 No Significant change. Runway 33: Damp, 51-100% contamination with <1mm, friction coefficient 0.55. UWWW 251530Z 35007MPS 9999 BKN021 02/M04 Q1022 R33/190055 NOSIG RMK QFE756/1008
MVFR 2°C / -4°C 340º 16kt >10km - Broken Clouds 2100ft 1022 No Significant change. Runway 33: Damp, 51-100% contamination with <1mm, friction coefficient 0.55. UWWW 251500Z 34008MPS 9999 BKN021 02/M04 Q1022 R33/190055 NOSIG RMK QFE756/1008
MVFR 2°C / -3°C 340º 16kt >10km - Broken Clouds 1800ft 1021 No Significant change. Runway 33: Damp, 51-100% contamination with <1mm, friction coefficient 0.55. UWWW 251430Z 34008MPS 9999 BKN018 02/M03 Q1021 R33/190055 NOSIG RMK QFE755/1007
MVFR 2°C / -2°C 330º 19kt >10km - Broken Clouds 1600ft 1021 No Significant change. Runway 33: Damp, 51-100% contamination with <1mm, friction coefficient 0.55. UWWW 251400Z 33010MPS 9999 BKN016 02/M02 Q1021 R33/190055 NOSIG RMK QFE755/1006
MVFR 3°C / -1°C 330º 17kt. Wind Shear present on Runway 33. >10km - Broken Clouds 1300ft 1020 No Significant change. Runway 33: Damp, 51-100% contamination with <1mm, friction coefficient 0.55. UWWW 251330Z 33009MPS 9999 BKN013 03/M01 Q1020 WS R33 R33/190055 NOSIG RMK QFE754/1006
MVFR 3°C / 0°C 330º 21kt >10km - Broken Clouds 1300ft 1019 No Significant change. Runway 33: Damp, 51-100% contamination with <1mm, friction coefficient 0.55. UWWW 251300Z 33011MPS 9999 BKN013 03/M00 Q1019 R33/190055 NOSIG RMK QFE754/1005
MVFR 4°C / 0°C 330º 19kt >10km - Broken Clouds 1500ft 1019 No Significant change. Runway 33: Wet or puddles, 51-100% contamination with 1mm, friction coefficient 0.50. UWWW 251230Z 33010MPS 9999 BKN015 04/M00 Q1019 R33/290150 NOSIG RMK QFE753/1004
IFR 4°C / 1°C 320º 16kt >10km - Broken Clouds 900ft 1018 No Significant change. Runway 33: Wet or puddles, 51-100% contamination with 1mm, friction coefficient 0.50. UWWW 251200Z 32008MPS 9999 BKN009 04/01 Q1018 R33/290150 NOSIG RMK QFE753/1004
MVFR 4°C / 2°C 310º 12kt >10km - Broken Clouds 1500ft 1017 No Significant change. Runway 33: Wet or puddles, 51-100% contamination with 1mm, friction coefficient 0.50. UWWW 251130Z 31006MPS 9999 BKN015 04/02 Q1017 R33/290150 NOSIG RMK QFE752/1003
MVFR 5°C / 1°C 320º 12kt >10km - Broken Clouds 2000ft 1017 No Significant change. Runway 33: Wet or puddles, 51-100% contamination with 1mm, friction coefficient 0.50. UWWW 251100Z 32006MPS 9999 BKN020 05/01 Q1017 R33/290150 NOSIG RMK QFE752/1002

VFR

-2°C / -4°C

[Più]
Vento 290º 6kt
Visibilità >10km
Tempo -
Nuvole Clouds and Visibility OK
Pressione 1027
Cambiamento No Significant change
Grezzo UWWW 252230Z 29003MPS CAVOK M02/M04 Q1027 R33/CLRD60 NOSIG RMK QFE759/1012

VFR

-3°C / -5°C

[Più]
Vento 270º variable 240º to 310º 6kt
Visibilità >10km
Tempo -
Nuvole Clouds and Visibility OK
Pressione 1026
Cambiamento No Significant change
Grezzo UWWW 252200Z 27003MPS 240V310 CAVOK M03/M05 Q1026 R33/CLRD60 NOSIG RMK QFE759/1012

VFR

-4°C / -6°C

[Più]
Vento 240º 4kt
Visibilità >10km
Tempo -
Nuvole Clouds and Visibility OK
Pressione 1026
Cambiamento No Significant change
Grezzo UWWW 252130Z 24002MPS CAVOK M04/M06 Q1026 R33/CLRD60 NOSIG RMK QFE759/1012

VFR

-2°C / -5°C

[Più]
Vento 290º variable 250º to 320º 6kt
Visibilità >10km
Tempo -
Nuvole Clouds and Visibility OK
Pressione 1026
Cambiamento No Significant change
Grezzo UWWW 252100Z 29003MPS 250V320 CAVOK M02/M05 Q1026 R33/CLRD60 NOSIG RMK QFE758/1011

VFR

-1°C / -5°C

[Più]
Vento 300º 8kt
Visibilità >10km
Tempo -
Nuvole Clouds and Visibility OK
Pressione 1025
Cambiamento No Significant change
Grezzo UWWW 252030Z 30004MPS CAVOK M01/M05 Q1025 R33/CLRD60 NOSIG RMK QFE758/1011

VFR

-1°C / -4°C

[Più]
Vento 300º 8kt
Visibilità >10km
Tempo -
Nuvole Clouds and Visibility OK
Pressione 1025
Cambiamento No Significant change
Grezzo UWWW 252000Z 30004MPS CAVOK M01/M04 Q1025 R33/CLRD60 NOSIG RMK QFE758/1011

VFR

-1°C / -5°C

[Più]
Vento 320º 10kt
Visibilità >10km
Tempo -
Nuvole Clouds and Visibility OK
Pressione 1025
Cambiamento No Significant change
Grezzo UWWW 251930Z 32005MPS CAVOK M01/M05 Q1025 R33/CLRD60 NOSIG RMK QFE758/1011

VFR

0°C / -4°C

[Più]
Vento 330º 12kt
Visibilità >10km
Tempo -
Nuvole Few Clouds 3300ft
Pressione 1025
Cambiamento No Significant change
Grezzo UWWW 251900Z 33006MPS 9999 FEW033 00/M04 Q1025 R33/CLRD60 NOSIG RMK QFE758/1010

VFR

0°C / -4°C

[Più]
Vento 330º 12kt
Visibilità >10km
Tempo -
Nuvole Scattered Clouds 2600ft
Pressione 1024
Cambiamento No Significant change
Grezzo UWWW 251830Z 33006MPS 9999 SCT026 00/M04 Q1024 R33/CLRD60 NOSIG RMK QFE758/1010

VFR

1°C / -5°C

[Più]
Vento 330º 8kt
Visibilità >10km
Tempo -
Nuvole Scattered Clouds 2600ft
Pressione 1024
Cambiamento No Significant change
Grezzo UWWW 251800Z 33004MPS 9999 SCT026 01/M05 Q1024 R33/CLRD60 NOSIG RMK QFE757/1010

MVFR

1°C / -5°C

[Più]
Vento 350º 10kt
Visibilità >10km
Tempo -
Nuvole Broken Clouds 3000ft
Pressione 1024
Cambiamento No Significant change
Grezzo UWWW 251730Z 35005MPS 9999 BKN030 01/M05 Q1024 R33/CLRD60 NOSIG RMK QFE757/1010

MVFR

1°C / -5°C

[Più]
Vento 330º 10kt
Visibilità >10km
Tempo -
Nuvole Broken Clouds 2700ft
Pressione 1024
Cambiamento No Significant change
Grezzo UWWW 251700Z 33005MPS 9999 BKN027 01/M05 Q1024 R33/CLRD60 NOSIG RMK QFE757/1010

MVFR

2°C / -5°C

[Più]
Vento 350º variable 320º to 020º 14kt
Visibilità >10km
Tempo -
Nuvole Broken Clouds 2800ft
Pressione 1023
Cambiamento No Significant change. Runway 33: Damp, 51-100% contamination with <1mm, friction coefficient 0.55.
Grezzo UWWW 251630Z 35007MPS 320V020 9999 BKN028 02/M05 Q1023 R33/190055 NOSIG RMK QFE757/1009

MVFR

2°C / -4°C

[Più]
Vento 330º variable 300º to 360º 10kt Gust 19kt
Visibilità >10km
Tempo -
Nuvole Broken Clouds 2300ft
Pressione 1023
Cambiamento No Significant change. Runway 33: Damp, 51-100% contamination with <1mm, friction coefficient 0.55.
Grezzo UWWW 251600Z 33005G10MPS 300V360 9999 BKN023 02/M04 Q1023 R33/190055 NOSIG RMK QFE756/1009

MVFR

2°C / -4°C

[Più]
Vento 350º 14kt
Visibilità >10km
Tempo -
Nuvole Broken Clouds 2100ft
Pressione 1022
Cambiamento No Significant change. Runway 33: Damp, 51-100% contamination with <1mm, friction coefficient 0.55.
Grezzo UWWW 251530Z 35007MPS 9999 BKN021 02/M04 Q1022 R33/190055 NOSIG RMK QFE756/1008

MVFR

2°C / -4°C

[Più]
Vento 340º 16kt
Visibilità >10km
Tempo -
Nuvole Broken Clouds 2100ft
Pressione 1022
Cambiamento No Significant change. Runway 33: Damp, 51-100% contamination with <1mm, friction coefficient 0.55.
Grezzo UWWW 251500Z 34008MPS 9999 BKN021 02/M04 Q1022 R33/190055 NOSIG RMK QFE756/1008

MVFR

2°C / -3°C

[Più]
Vento 340º 16kt
Visibilità >10km
Tempo -
Nuvole Broken Clouds 1800ft
Pressione 1021
Cambiamento No Significant change. Runway 33: Damp, 51-100% contamination with <1mm, friction coefficient 0.55.
Grezzo UWWW 251430Z 34008MPS 9999 BKN018 02/M03 Q1021 R33/190055 NOSIG RMK QFE755/1007

MVFR

2°C / -2°C

[Più]
Vento 330º 19kt
Visibilità >10km
Tempo -
Nuvole Broken Clouds 1600ft
Pressione 1021
Cambiamento No Significant change. Runway 33: Damp, 51-100% contamination with <1mm, friction coefficient 0.55.
Grezzo UWWW 251400Z 33010MPS 9999 BKN016 02/M02 Q1021 R33/190055 NOSIG RMK QFE755/1006

MVFR

3°C / -1°C

[Più]
Vento 330º 17kt. Wind Shear present on Runway 33.
Visibilità >10km
Tempo -
Nuvole Broken Clouds 1300ft
Pressione 1020
Cambiamento No Significant change. Runway 33: Damp, 51-100% contamination with <1mm, friction coefficient 0.55.
Grezzo UWWW 251330Z 33009MPS 9999 BKN013 03/M01 Q1020 WS R33 R33/190055 NOSIG RMK QFE754/1006

MVFR

3°C / 0°C

[Più]
Vento 330º 21kt
Visibilità >10km
Tempo -
Nuvole Broken Clouds 1300ft
Pressione 1019
Cambiamento No Significant change. Runway 33: Damp, 51-100% contamination with <1mm, friction coefficient 0.55.
Grezzo UWWW 251300Z 33011MPS 9999 BKN013 03/M00 Q1019 R33/190055 NOSIG RMK QFE754/1005

MVFR

4°C / 0°C

[Più]
Vento 330º 19kt
Visibilità >10km
Tempo -
Nuvole Broken Clouds 1500ft
Pressione 1019
Cambiamento No Significant change. Runway 33: Wet or puddles, 51-100% contamination with 1mm, friction coefficient 0.50.
Grezzo UWWW 251230Z 33010MPS 9999 BKN015 04/M00 Q1019 R33/290150 NOSIG RMK QFE753/1004

IFR

4°C / 1°C

[Più]
Vento 320º 16kt
Visibilità >10km
Tempo -
Nuvole Broken Clouds 900ft
Pressione 1018
Cambiamento No Significant change. Runway 33: Wet or puddles, 51-100% contamination with 1mm, friction coefficient 0.50.
Grezzo UWWW 251200Z 32008MPS 9999 BKN009 04/01 Q1018 R33/290150 NOSIG RMK QFE753/1004

MVFR

4°C / 2°C

[Più]
Vento 310º 12kt
Visibilità >10km
Tempo -
Nuvole Broken Clouds 1500ft
Pressione 1017
Cambiamento No Significant change. Runway 33: Wet or puddles, 51-100% contamination with 1mm, friction coefficient 0.50.
Grezzo UWWW 251130Z 31006MPS 9999 BKN015 04/02 Q1017 R33/290150 NOSIG RMK QFE752/1003

MVFR

5°C / 1°C

[Più]
Vento 320º 12kt
Visibilità >10km
Tempo -
Nuvole Broken Clouds 2000ft
Pressione 1017
Cambiamento No Significant change. Runway 33: Wet or puddles, 51-100% contamination with 1mm, friction coefficient 0.50.
Grezzo UWWW 251100Z 32006MPS 9999 BKN020 05/01 Q1017 R33/290150 NOSIG RMK QFE752/1002

TAF per 53.5°N 50.15°E (UWWW)

From till


Maximum Temperature 3ºC on . Minimum Temperature -2ºC on .
From till Wind 300º 6kt. Gust 17kt. Visibility 6000m. Broken Clouds 1600ft.
Temporarly from till Wind 270º 12kt. Gust 23kt.
Becoming from till Wind 260º 6kt. Gust 17kt. Visibility 6000m. Broken Clouds 1600ft.
Temporarly from till Wind 230º 17kt. Gust 29kt.

Grezzo: TAF UWWW 251955Z 2521/2621 30003G09MPS 6000 BKN016 TX03/2611Z TNM02/2603Z TEMPO 2521/2604 27006G12MPS BECMG 2604/2606 26003G09MPS TEMPO 2606/2618 23009G15MPS

Tempo in atto per 53.5°N 50.15°E: immagine satellitare e pioggia

Il segnaposto è situato a 53.5°N 50.15°E. [Più]

L'immagine satellitare in tempo reale combina la luce visibile durante il giorno con la radiazione infrarossa durante la notte. Di notte l'immagine non è scura poiché i raggi infrarossi possono rilevare differenze di temperatura. Purtroppo, le nuvole basse e la nebbia sono difficili da distinguere dalla temperatura del suolo e possono pertanto essere quasi invisibili durante la notte. Le immagini satellitari Meteosat per l'Europa vengono aggiornate in tempo reale ogni 5 minuti. Le immagini GOES-16 / GOES-17 (Nord e Sud America) e Himawari (Asia) vengono aggiornate ogni 10 minuti.

Copyright 2021 EUMETSAT / meteoblue. / Copyright 2021 meteoblue

Radar e nowcasting per 53.5°N 50.15°E

Pioviggine
Lieve
Moderato
Forte
Molto forte
Grandine

Il segnaposto è situato a 53.5°N 50.15°E. Questa animazione mostra il radar delle precipitazioni per l'ultima ora, nonché una previsione 1h. Una pioviggine o una leggera caduta di neve potrebbero essere invisibili per il radar. L'intensità delle precipitazioni è codificata a colori, dal blu chiaro all'arancione.